Time;durP1;ratioP1;P1;durP2;ratioP2;P2;SDS_P1;SDS_P2;PMS_P1;PMS_P2;Temp;Humidity;BMP_temperature;BMP_pressure;BME280_temperature;BME280_humidity;BME280_pressure;Samples;Min_cycle;Max_cycle;Signal;HPM_P1;HPM_P2
2022/01/03 00:02:22;;;;;;;13.73;1.73;;;;;;;;;;5069310;28;20507;-80
2022/01/03 00:04:48;;;;;;;17.80;2.70;;;;;;;;;;5052410;28;20518;-80
2022/01/03 00:07:15;;;;;;;15.15;2.17;;;;;;;;;;5052382;28;20124;-81
2022/01/03 00:09:41;;;;;;;19.67;2.53;;;;;;;;;;5067831;28;20040;-79
2022/01/03 00:12:08;;;;;;;19.23;2.65;;;;;;;;;;5070162;28;20036;-79
2022/01/03 00:14:34;;;;;;;21.75;2.28;;;;;;;;;;5052445;28;20492;-78
2022/01/03 00:17:00;;;;;;;17.55;2.22;;;;;;;;;;5068400;28;20045;-78
2022/01/03 00:19:27;;;;;;;17.65;2.35;;;;;;;;;;5068363;28;20363;-78
2022/01/03 00:21:54;;;;;;;19.35;2.33;;;;;;;;;;5068097;28;20114;-80
2022/01/03 00:24:29;;;;;;;20.83;3.13;;;;;;;;;;5052109;28;20048;-79
2022/01/03 00:27:00;;;;;;;19.88;2.70;;;;;;;;;;5068444;28;20123;-77
2022/01/03 00:29:28;;;;;;;19.50;2.65;;;;;;;;;;5068790;28;20093;-78
2022/01/03 00:31:56;;;;;;;22.45;2.30;;;;;;;;;;5051549;28;20515;-78
2022/01/03 00:34:27;;;;;;;22.17;3.20;;;;;;;;;;5068627;28;20053;-78
2022/01/03 00:36:53;;;;;;;20.05;2.15;;;;;;;;;;5068282;28;20055;-79
2022/01/03 00:39:19;;;;;;;23.70;2.30;;;;;;;;;;5068632;28;20373;-78
2022/01/03 00:41:48;;;;;;;20.80;2.35;;;;;;;;;;5068427;28;20044;-78
2022/01/03 00:44:14;;;;;;;20.95;2.85;;;;;;;;;;5069417;28;20036;-78
2022/01/03 00:46:42;;;;;;;16.85;2.15;;;;;;;;;;5068045;28;20048;-79
2022/01/03 00:49:08;;;;;;;21.13;2.20;;;;;;;;;;5068431;28;20090;-79
2022/01/03 00:51:35;;;;;;;17.77;2.28;;;;;;;;;;5069748;28;20154;-78
2022/01/03 00:54:01;;;;;;;22.02;2.88;;;;;;;;;;5069181;28;20048;-78
2022/01/03 00:56:29;;;;;;;20.48;2.70;;;;;;;;;;5068715;28;20041;-80
2022/01/03 00:58:55;;;;;;;14.93;2.75;;;;;;;;;;5068282;28;20044;-81
2022/01/03 01:01:23;;;;;;;16.92;2.00;;;;;;;;;;5051830;28;20036;-80
2022/01/03 01:03:52;;;;;;;23.15;3.28;;;;;;;;;;5068063;28;20056;-81
2022/01/03 01:06:20;;;;;;;24.48;3.35;;;;;;;;;;5068440;28;20558;-78
2022/01/03 01:08:48;;;;;;;24.20;2.75;;;;;;;;;;5051340;28;20080;-81
2022/01/03 01:11:16;;;;;;;17.33;2.13;;;;;;;;;;5068377;28;20040;-80
2022/01/03 01:13:44;;;;;;;20.67;3.08;;;;;;;;;;5067862;28;20135;-79
2022/01/03 01:16:11;;;;;;;21.95;3.28;;;;;;;;;;5051833;28;20079;-80
2022/01/03 01:18:37;;;;;;;18.40;2.45;;;;;;;;;;5067735;28;20095;-80
2022/01/03 01:21:05;;;;;;;24.25;2.65;;;;;;;;;;5069622;28;20044;-81
2022/01/03 01:23:31;;;;;;;22.67;3.10;;;;;;;;;;5072380;28;20135;-80
2022/01/03 01:28:43;;;;;;;23.50;3.33;;;;;;;;;;5071856;28;20365;-78
2022/01/03 01:31:11;;;;;;;22.55;3.10;;;;;;;;;;5072267;28;20487;-78
2022/01/03 01:33:38;;;;;;;17.42;2.70;;;;;;;;;;5072003;28;20036;-77
2022/01/03 01:36:05;;;;;;;27.38;3.38;;;;;;;;;;5073435;28;20044;-78
2022/01/03 01:38:33;;;;;;;18.48;2.75;;;;;;;;;;5072911;28;20037;-77
2022/01/03 01:41:01;;;;;;;21.65;2.95;;;;;;;;;;5054793;28;20072;-78
2022/01/03 01:43:33;;;;;;;23.38;3.58;;;;;;;;;;5071973;28;20056;-80
2022/01/03 01:46:00;;;;;;;20.35;2.40;;;;;;;;;;5071399;28;20041;-79
2022/01/03 01:48:27;;;;;;;16.00;2.30;;;;;;;;;;5071616;28;20044;-78
2022/01/03 01:50:55;;;;;;;19.55;2.95;;;;;;;;;;5070954;28;20123;-77
2022/01/03 01:53:26;;;;;;;21.05;3.50;;;;;;;;;;5071381;28;20123;-78
2022/01/03 01:55:53;;;;;;;26.67;3.47;;;;;;;;;;5071188;28;20094;-81
2022/01/03 01:58:19;;;;;;;27.98;2.80;;;;;;;;;;5072752;28;20048;-78
2022/01/03 02:00:47;;;;;;;21.30;2.90;;;;;;;;;;5054479;28;20041;-78
2022/01/03 02:03:24;;;;;;;27.63;3.50;;;;;;;;;;5071709;28;20480;-78
2022/01/03 02:06:13;;;;;;;23.00;2.85;;;;;;;;;;5054339;28;20044;-80
2022/01/03 02:08:44;;;;;;;20.17;3.38;;;;;;;;;;5070019;28;20037;-78
2022/01/03 02:11:23;;;;;;;22.98;2.65;;;;;;;;;;5071112;28;20036;-78
2022/01/03 02:13:50;;;;;;;22.77;3.13;;;;;;;;;;5070619;28;20101;-78
2022/01/03 02:16:18;;;;;;;36.65;3.83;;;;;;;;;;5041701;28;20404;-77
2022/01/03 02:18:44;;;;;;;22.17;3.45;;;;;;;;;;5050764;28;20139;-78
2022/01/03 02:21:10;;;;;;;21.85;3.00;;;;;;;;;;5050878;28;20063;-78
2022/01/03 02:23:37;;;;;;;22.33;2.88;;;;;;;;;;5051269;28;20079;-78
2022/01/03 02:26:03;;;;;;;20.98;2.53;;;;;;;;;;5052735;28;20040;-78
2022/01/03 02:28:29;;;;;;;23.52;2.67;;;;;;;;;;5051067;28;20116;-78
2022/01/03 02:30:55;;;;;;;21.65;2.88;;;;;;;;;;5058495;28;20048;-78
2022/01/03 02:33:21;;;;;;;24.25;3.05;;;;;;;;;;5053933;28;20123;-78
2022/01/03 02:35:47;;;;;;;21.45;2.97;;;;;;;;;;5070868;28;20100;-78
2022/01/03 02:38:14;;;;;;;26.23;3.35;;;;;;;;;;5071329;28;20059;-78
2022/01/03 02:40:41;;;;;;;22.75;3.33;;;;;;;;;;5070411;28;20083;-78
2022/01/03 02:43:07;;;;;;;26.77;3.50;;;;;;;;;;5071424;28;20450;-78
2022/01/03 02:45:33;;;;;;;20.65;2.25;;;;;;;;;;5070695;28;20045;-80
2022/01/03 02:48:01;;;;;;;29.67;3.20;;;;;;;;;;5054307;28;20488;-80
2022/01/03 02:50:28;;;;;;;28.20;3.65;;;;;;;;;;5070464;28;20075;-79
2022/01/03 02:52:55;;;;;;;29.67;3.80;;;;;;;;;;5070363;28;20040;-79
2022/01/03 02:55:22;;;;;;;22.80;2.60;;;;;;;;;;5071323;28;20480;-80
2022/01/03 02:57:52;;;;;;;20.35;2.65;;;;;;;;;;5071322;28;20439;-79
2022/01/03 03:00:22;;;;;;;26.58;2.92;;;;;;;;;;5072366;28;20388;-80
2022/01/03 03:02:49;;;;;;;24.25;4.28;;;;;;;;;;5065805;28;20504;-80
2022/01/03 03:05:15;;;;;;;26.15;3.45;;;;;;;;;;5070809;28;20044;-79
2022/01/03 03:07:41;;;;;;;26.75;2.88;;;;;;;;;;5069625;28;20044;-81
2022/01/03 03:10:10;;;;;;;15.95;2.60;;;;;;;;;;5070534;28;20045;-78
2022/01/03 03:12:36;;;;;;;26.23;2.90;;;;;;;;;;5053727;28;20052;-79
2022/01/03 03:15:02;;;;;;;20.48;3.13;;;;;;;;;;5071422;28;20534;-82
2022/01/03 03:17:28;;;;;;;16.75;2.63;;;;;;;;;;5071194;28;20131;-80
2022/01/03 03:19:55;;;;;;;22.10;2.83;;;;;;;;;;5052806;28;20052;-80
2022/01/03 03:22:21;;;;;;;21.48;3.05;;;;;;;;;;5070106;28;20065;-80
2022/01/03 03:24:47;;;;;;;26.33;3.63;;;;;;;;;;5070178;28;20406;-80
2022/01/03 03:27:14;;;;;;;22.55;2.95;;;;;;;;;;5069904;28;20044;-81
2022/01/03 03:29:44;;;;;;;26.35;2.97;;;;;;;;;;5069992;28;20044;-80
2022/01/03 03:32:10;;;;;;;26.33;3.05;;;;;;;;;;5070065;28;20032;-82
2022/01/03 03:34:36;;;;;;;15.07;2.42;;;;;;;;;;5070493;28;20049;-82
2022/01/03 03:37:02;;;;;;;30.13;3.30;;;;;;;;;;5053384;28;20412;-81
2022/01/03 03:39:30;;;;;;;19.92;2.83;;;;;;;;;;5070105;28;20389;-81
2022/01/03 03:41:56;;;;;;;25.52;3.03;;;;;;;;;;5069137;28;20044;-80
2022/01/03 03:44:22;;;;;;;20.30;3.05;;;;;;;;;;5069193;28;20087;-81
2022/01/03 03:46:48;;;;;;;23.27;3.70;;;;;;;;;;5069386;28;20048;-78
2022/01/03 03:49:14;;;;;;;27.83;3.60;;;;;;;;;;5069819;28;20526;-79
2022/01/03 03:51:41;;;;;;;23.67;3.00;;;;;;;;;;5070687;28;20040;-79
2022/01/03 03:54:07;;;;;;;28.50;3.63;;;;;;;;;;5069691;28;20369;-80
2022/01/03 03:56:34;;;;;;;25.23;2.85;;;;;;;;;;5069877;28;20448;-81
2022/01/03 03:59:00;;;;;;;26.13;3.83;;;;;;;;;;5052642;28;20059;-80
2022/01/03 04:01:26;;;;;;;22.10;3.58;;;;;;;;;;5069707;28;20395;-80
2022/01/03 04:03:52;;;;;;;18.52;3.15;;;;;;;;;;5052300;28;20052;-81
2022/01/03 04:06:19;;;;;;;29.75;3.72;;;;;;;;;;5069137;28;20037;-79
2022/01/03 04:08:46;;;;;;;28.73;3.42;;;;;;;;;;5051907;28;20040;-78
2022/01/03 04:11:15;;;;;;;24.85;3.33;;;;;;;;;;5070005;28;20169;-78
2022/01/03 04:13:41;;;;;;;28.83;3.35;;;;;;;;;;5068506;28;20462;-81
2022/01/03 04:16:08;;;;;;;26.30;3.38;;;;;;;;;;5069527;28;20040;-81
2022/01/03 04:18:34;;;;;;;23.85;3.65;;;;;;;;;;5052255;28;20037;-81
2022/01/03 04:21:00;;;;;;;22.60;3.55;;;;;;;;;;5051997;28;20049;-79
2022/01/03 04:23:26;;;;;;;21.65;3.38;;;;;;;;;;5069046;28;20088;-78
2022/01/03 04:25:53;;;;;;;28.85;3.85;;;;;;;;;;5068497;28;20041;-81
2022/01/03 04:28:21;;;;;;;31.27;3.60;;;;;;;;;;5068810;28;20051;-79
2022/01/03 04:30:47;;;;;;;26.88;3.85;;;;;;;;;;5068288;28;20032;-78
2022/01/03 04:33:13;;;;;;;33.88;3.90;;;;;;;;;;5068985;28;20036;-80
2022/01/03 04:35:40;;;;;;;30.52;4.47;;;;;;;;;;5069574;28;20037;-78
2022/01/03 04:38:06;;;;;;;29.92;3.88;;;;;;;;;;5068580;28;20274;-79
2022/01/03 04:40:32;;;;;;;28.67;3.83;;;;;;;;;;5051614;28;20045;-78
2022/01/03 04:42:58;;;;;;;32.58;3.10;;;;;;;;;;5068135;28;20135;-78
2022/01/03 04:45:24;;;;;;;23.80;3.60;;;;;;;;;;5068775;28;20050;-80
2022/01/03 04:47:51;;;;;;;28.88;4.30;;;;;;;;;;5069730;28;20051;-79
2022/01/03 04:50:17;;;;;;;25.75;3.30;;;;;;;;;;5068682;28;20045;-82
2022/01/03 04:52:43;;;;;;;27.35;3.05;;;;;;;;;;5068742;28;20393;-80
2022/01/03 04:55:09;;;;;;;22.92;3.22;;;;;;;;;;5068654;28;20036;-81
2022/01/03 04:57:35;;;;;;;27.70;3.58;;;;;;;;;;5069703;28;20080;-80
2022/01/03 05:00:01;;;;;;;24.13;3.40;;;;;;;;;;5069743;28;20040;-82
2022/01/03 05:02:27;;;;;;;27.35;3.75;;;;;;;;;;5057824;28;20128;-81
2022/01/03 05:04:53;;;;;;;30.65;3.83;;;;;;;;;;5067711;28;20040;-80
2022/01/03 05:07:19;;;;;;;23.30;3.28;;;;;;;;;;5051199;28;20049;-78
2022/01/03 05:09:45;;;;;;;35.30;4.22;;;;;;;;;;5069105;28;20055;-81
2022/01/03 05:12:12;;;;;;;31.50;3.95;;;;;;;;;;5069920;28;20040;-78
2022/01/03 05:14:39;;;;;;;24.80;3.20;;;;;;;;;;5068771;28;20080;-81
2022/01/03 05:17:05;;;;;;;32.75;4.78;;;;;;;;;;5068900;28;20530;-80
2022/01/03 05:19:32;;;;;;;26.75;4.65;;;;;;;;;;5068458;28;20088;-80
2022/01/03 05:21:58;;;;;;;34.10;4.25;;;;;;;;;;5068192;28;20048;-81
2022/01/03 05:24:24;;;;;;;30.67;3.42;;;;;;;;;;5102377;28;20101;-79
2022/01/03 05:26:50;;;;;;;36.28;4.55;;;;;;;;;;5068303;28;20048;-78
2022/01/03 05:29:16;;;;;;;29.38;3.88;;;;;;;;;;5069861;28;20045;-78
2022/01/03 05:31:42;;;;;;;36.88;4.00;;;;;;;;;;5067579;28;20040;-80
2022/01/03 05:34:08;;;;;;;29.50;3.47;;;;;;;;;;5051507;28;20036;-81
2022/01/03 05:36:34;;;;;;;28.90;3.90;;;;;;;;;;5068398;28;20105;-80
2022/01/03 05:39:00;;;;;;;24.38;3.70;;;;;;;;;;5051319;28;20396;-80
2022/01/03 05:41:27;;;;;;;35.03;3.58;;;;;;;;;;5051581;28;20051;-81
2022/01/03 05:43:53;;;;;;;26.13;3.55;;;;;;;;;;5068128;28;20381;-78
2022/01/03 05:46:19;;;;;;;27.88;3.92;;;;;;;;;;5068244;28;20048;-78
2022/01/03 05:48:45;;;;;;;33.88;3.90;;;;;;;;;;5067601;28;20040;-78
2022/01/03 05:51:11;;;;;;;31.60;4.25;;;;;;;;;;5068054;28;20076;-81
2022/01/03 05:53:39;;;;;;;27.08;3.58;;;;;;;;;;5068553;28;20507;-78
2022/01/03 05:56:05;;;;;;;29.48;3.88;;;;;;;;;;5051328;28;20395;-80
2022/01/03 05:58:31;;;;;;;29.63;4.05;;;;;;;;;;5051577;28;20098;-78
2022/01/03 06:00:59;;;;;;;32.85;3.70;;;;;;;;;;5051134;28;20051;-80
2022/01/03 06:03:27;;;;;;;29.08;3.58;;;;;;;;;;5051989;28;20435;-78
2022/01/03 06:08:22;;;;;;;30.15;3.72;;;;;;;;;;5069555;28;20087;-78
2022/01/03 06:10:48;;;;;;;31.83;4.45;;;;;;;;;;5071463;28;20480;-79
2022/01/03 06:13:15;;;;;;;27.60;3.40;;;;;;;;;;5055014;28;20152;-79
2022/01/03 06:15:41;;;;;;;33.67;3.83;;;;;;;;;;5071656;28;20068;-78
2022/01/03 06:18:11;;;;;;;33.63;4.40;;;;;;;;;;5071934;28;20544;-80
2022/01/03 06:20:41;;;;;;;24.23;3.35;;;;;;;;;;5072596;28;20105;-78
2022/01/03 06:23:08;;;;;;;30.30;4.10;;;;;;;;;;5071281;28;20076;-78
2022/01/03 06:25:34;;;;;;;30.67;3.53;;;;;;;;;;5054784;28;20044;-79
2022/01/03 06:28:00;;;;;;;25.83;3.53;;;;;;;;;;5071473;28;20043;-80
2022/01/03 06:30:27;;;;;;;30.38;4.28;;;;;;;;;;5071447;28;20422;-77
2022/01/03 06:32:53;;;;;;;34.75;3.97;;;;;;;;;;5071272;28;20048;-80
2022/01/03 06:35:19;;;;;;;23.25;3.47;;;;;;;;;;5071467;28;20131;-78
2022/01/03 06:37:45;;;;;;;31.70;4.20;;;;;;;;;;5054816;28;20052;-79
2022/01/03 06:40:11;;;;;;;28.00;3.75;;;;;;;;;;5055546;28;20130;-81
2022/01/03 06:42:37;;;;;;;24.85;3.67;;;;;;;;;;5054656;28;20040;-80
2022/01/03 06:45:03;;;;;;;34.88;4.28;;;;;;;;;;5072246;28;20541;-80
2022/01/03 06:47:29;;;;;;;29.55;3.92;;;;;;;;;;5072462;28;20067;-78
2022/01/03 06:49:56;;;;;;;31.83;3.67;;;;;;;;;;5070694;28;20040;-80
2022/01/03 06:52:22;;;;;;;30.67;3.97;;;;;;;;;;5071012;28;20489;-80
2022/01/03 06:54:48;;;;;;;29.30;3.67;;;;;;;;;;5070805;28;20481;-81
2022/01/03 06:57:14;;;;;;;35.05;4.97;;;;;;;;;;5070915;28;20052;-80
2022/01/03 06:59:40;;;;;;;38.25;4.72;;;;;;;;;;5054037;28;20048;-80
2022/01/03 07:02:06;;;;;;;25.92;3.38;;;;;;;;;;5070393;28;20044;-80
2022/01/03 07:04:32;;;;;;;31.38;3.58;;;;;;;;;;5070673;28;20052;-78
2022/01/03 07:06:59;;;;;;;28.73;3.53;;;;;;;;;;5070275;28;20420;-78
2022/01/03 07:09:25;;;;;;;33.90;4.32;;;;;;;;;;5070630;28;20097;-78
2022/01/03 07:11:51;;;;;;;27.77;3.80;;;;;;;;;;5071450;28;20123;-78
2022/01/03 07:19:54;;;;;;;28.30;3.60;;;;;;;;;;5069437;28;20098;-77
2022/01/03 07:22:20;;;;;;;27.45;3.53;;;;;;;;;;5069920;28;20048;-78
2022/01/03 07:24:46;;;;;;;38.53;4.97;;;;;;;;;;5070262;28;20118;-78
2022/01/03 07:27:13;;;;;;;25.00;3.75;;;;;;;;;;5053403;28;20041;-78
2022/01/03 07:29:39;;;;;;;31.13;4.18;;;;;;;;;;5070166;28;20040;-79
2022/01/03 07:32:06;;;;;;;34.80;4.97;;;;;;;;;;5069170;28;20036;-79
2022/01/03 07:34:32;;;;;;;24.15;3.70;;;;;;;;;;5053564;28;20041;-78
2022/01/03 07:36:58;;;;;;;26.80;3.58;;;;;;;;;;5069908;28;20385;-78
2022/01/03 07:39:24;;;;;;;31.67;4.00;;;;;;;;;;5053378;28;20044;-78
2022/01/03 07:41:50;;;;;;;29.98;3.40;;;;;;;;;;5069570;28;20162;-78
2022/01/03 07:44:16;;;;;;;38.03;4.25;;;;;;;;;;5070074;28;20040;-79
2022/01/03 07:46:42;;;;;;;27.45;3.40;;;;;;;;;;5070747;28;20488;-80
2022/01/03 07:49:09;;;;;;;34.13;4.03;;;;;;;;;;5069184;28;20037;-80
2022/01/03 07:51:35;;;;;;;33.83;3.80;;;;;;;;;;5069893;28;20442;-80
2022/01/03 07:54:01;;;;;;;23.50;3.47;;;;;;;;;;5052701;28;20119;-80
2022/01/03 07:56:27;;;;;;;26.52;3.17;;;;;;;;;;5070036;28;20072;-80
2022/01/03 07:58:53;;;;;;;34.35;4.10;;;;;;;;;;5053226;28;20040;-80
2022/01/03 08:01:19;;;;;;;31.17;3.75;;;;;;;;;;5070989;28;20037;-79
2022/01/03 08:03:45;;;;;;;29.58;3.67;;;;;;;;;;5052809;28;20479;-80
2022/01/03 08:06:12;;;;;;;27.40;3.40;;;;;;;;;;5069738;28;20044;-80
2022/01/03 08:08:38;;;;;;;33.03;4.30;;;;;;;;;;5070188;28;20106;-80
2022/01/03 08:11:04;;;;;;;26.50;3.17;;;;;;;;;;5052505;28;20084;-79
2022/01/03 08:13:30;;;;;;;31.67;4.32;;;;;;;;;;5053500;28;20484;-80
2022/01/03 08:15:57;;;;;;;29.48;3.92;;;;;;;;;;5069118;28;20051;-80
2022/01/03 08:18:23;;;;;;;27.38;4.15;;;;;;;;;;5053137;28;20044;-80
2022/01/03 08:20:51;;;;;;;29.58;3.33;;;;;;;;;;5068996;28;20060;-80
2022/01/03 08:23:17;;;;;;;31.42;3.63;;;;;;;;;;5069506;28;20093;-78
2022/01/03 08:25:44;;;;;;;29.65;3.30;;;;;;;;;;5052779;28;20514;-80
2022/01/03 08:28:10;;;;;;;19.52;3.00;;;;;;;;;;5069166;28;20120;-78
2022/01/03 08:30:36;;;;;;;26.27;3.65;;;;;;;;;;5069384;28;20032;-80
2022/01/03 08:33:03;;;;;;;20.60;3.22;;;;;;;;;;5069465;28;20048;-80
2022/01/03 08:35:30;;;;;;;26.35;3.30;;;;;;;;;;5052858;28;20119;-80
2022/01/03 08:37:56;;;;;;;30.27;3.80;;;;;;;;;;5069049;28;20045;-79
2022/01/03 08:40:22;;;;;;;27.65;3.70;;;;;;;;;;5069185;28;20044;-81
2022/01/03 08:42:48;;;;;;;27.95;3.13;;;;;;;;;;5052178;28;20044;-82
2022/01/03 08:45:14;;;;;;;25.73;3.63;;;;;;;;;;5068913;28;20081;-80
2022/01/03 08:47:40;;;;;;;24.98;3.25;;;;;;;;;;5068836;28;20052;-79
2022/01/03 08:50:07;;;;;;;26.40;4.05;;;;;;;;;;5068238;28;20040;-79
2022/01/03 08:52:33;;;;;;;25.83;3.67;;;;;;;;;;5068648;28;20036;-79
2022/01/03 08:54:59;;;;;;;29.90;4.07;;;;;;;;;;5051985;28;20040;-79
2022/01/03 08:57:25;;;;;;;31.52;4.38;;;;;;;;;;5068682;28;20311;-80
2022/01/03 08:59:52;;;;;;;24.98;3.95;;;;;;;;;;5035220;28;20048;-79
2022/01/03 09:02:19;;;;;;;24.92;3.50;;;;;;;;;;5068691;28;20506;-79
2022/01/03 09:04:46;;;;;;;31.70;3.58;;;;;;;;;;5051629;28;20121;-79
2022/01/03 09:07:12;;;;;;;25.75;3.42;;;;;;;;;;5070266;28;20045;-79
2022/01/03 09:09:38;;;;;;;33.85;3.75;;;;;;;;;;5052015;28;20044;-79
2022/01/03 09:12:06;;;;;;;31.00;3.55;;;;;;;;;;5068054;28;20040;-79
2022/01/03 09:14:33;;;;;;;24.98;3.33;;;;;;;;;;5068909;28;20048;-79
2022/01/03 09:16:59;;;;;;;23.42;3.53;;;;;;;;;;5068639;28;20396;-80
2022/01/03 09:19:25;;;;;;;28.52;3.38;;;;;;;;;;5051518;28;20070;-80
2022/01/03 09:21:59;;;;;;;25.52;3.83;;;;;;;;;;5068189;28;20146;-80
2022/01/03 09:24:42;;;;;;;28.08;3.30;;;;;;;;;;5068805;28;20048;-79
2022/01/03 09:29:54;;;;;;;23.10;3.33;;;;;;;;;;5068451;28;20248;-79
2022/01/03 09:32:20;;;;;;;23.95;3.38;;;;;;;;;;5068575;28;20048;-80
2022/01/03 09:34:46;;;;;;;25.35;3.50;;;;;;;;;;5068357;28;20052;-80
2022/01/03 09:37:17;;;;;;;18.98;3.00;;;;;;;;;;5068146;28;20193;-80
2022/01/03 09:39:43;;;;;;;22.13;3.40;;;;;;;;;;5068509;28;20044;-80
2022/01/03 09:42:11;;;;;;;27.08;3.63;;;;;;;;;;5068938;28;20044;-79
2022/01/03 09:44:37;;;;;;;26.08;3.45;;;;;;;;;;5073653;28;20043;-79
2022/01/03 09:47:05;;;;;;;29.02;3.65;;;;;;;;;;5071805;28;20060;-79
2022/01/03 09:49:33;;;;;;;24.23;3.58;;;;;;;;;;5072043;28;20043;-80
2022/01/03 09:51:59;;;;;;;21.38;3.40;;;;;;;;;;5071815;28;20472;-79
2022/01/03 09:54:26;;;;;;;31.05;3.72;;;;;;;;;;5073291;28;20043;-80
2022/01/03 09:56:53;;;;;;;30.77;4.18;;;;;;;;;;5071548;28;20045;-79
2022/01/03 09:59:19;;;;;;;25.40;4.30;;;;;;;;;;5071787;28;20080;-79
2022/01/03 10:01:45;;;;;;;20.45;3.33;;;;;;;;;;5073178;28;20169;-79
2022/01/03 10:04:15;;;;;;;25.13;4.50;;;;;;;;;;5071573;28;20506;-79
2022/01/03 10:06:42;;;;;;;24.17;4.68;;;;;;;;;;5071714;28;20136;-79
2022/01/03 10:09:08;;;;;;;22.55;5.18;;;;;;;;;;5071515;28;20041;-80
2022/01/03 10:11:36;;;;;;;26.63;4.90;;;;;;;;;;5071999;28;20045;-79
2022/01/03 10:14:02;;;;;;;24.10;5.50;;;;;;;;;;5071288;28;20090;-80
2022/01/03 10:16:29;;;;;;;24.70;4.80;;;;;;;;;;5054998;28;20127;-78
2022/01/03 10:18:55;;;;;;;24.65;3.78;;;;;;;;;;5070926;28;20049;-79
2022/01/03 10:21:42;;;;;;;26.73;3.95;;;;;;;;;;5054925;28;20044;-79
2022/01/03 10:24:08;;;;;;;20.88;3.70;;;;;;;;;;5070495;28;20097;-79
2022/01/03 10:26:36;;;;;;;19.63;3.67;;;;;;;;;;5071984;28;20052;-79
2022/01/03 10:29:11;;;;;;;22.85;3.67;;;;;;;;;;5054603;28;20127;-78
2022/01/03 10:31:41;;;;;;;24.98;3.47;;;;;;;;;;5071443;28;20047;-78
2022/01/03 10:34:09;;;;;;;25.92;3.65;;;;;;;;;;5070855;28;20044;-79
2022/01/03 10:36:36;;;;;;;21.35;4.18;;;;;;;;;;5071711;28;20059;-79
2022/01/03 10:39:16;;;;;;;26.23;3.92;;;;;;;;;;5038049;28;20082;-80
2022/01/03 10:41:43;;;;;;;26.25;4.13;;;;;;;;;;5054934;28;20392;-78
2022/01/03 10:44:10;;;;;;;19.13;3.47;;;;;;;;;;5054181;28;20044;-78
2022/01/03 10:46:37;;;;;;;16.27;3.60;;;;;;;;;;5071089;28;20049;-79
2022/01/03 10:49:06;;;;;;;19.10;3.10;;;;;;;;;;5070574;28;20052;-78
2022/01/03 10:51:32;;;;;;;21.40;3.35;;;;;;;;;;5070685;28;20037;-78
2022/01/03 10:53:59;;;;;;;22.90;3.58;;;;;;;;;;5071235;28;20041;-80
2022/01/03 10:56:34;;;;;;;23.92;3.83;;;;;;;;;;5070408;28;20052;-78
2022/01/03 10:59:02;;;;;;;19.45;3.47;;;;;;;;;;5070599;28;20453;-79
2022/01/03 11:01:31;;;;;;;17.25;3.17;;;;;;;;;;5070670;28;20040;-79
2022/01/03 11:04:00;;;;;;;20.30;3.65;;;;;;;;;;5071785;28;20044;-79
2022/01/03 11:11:45;;;;;;;24.63;3.97;;;;;;;;;;5070559;28;20049;-78
2022/01/03 11:14:30;;;;;;;21.60;3.35;;;;;;;;;;5070309;28;20495;-79
2022/01/03 11:16:57;;;;;;;17.05;3.28;;;;;;;;;;5070573;28;20052;-80
2022/01/03 11:19:44;;;;;;;19.88;3.20;;;;;;;;;;5071638;28;20067;-79
2022/01/03 11:22:10;;;;;;;22.42;4.40;;;;;;;;;;5070396;28;21000;-79
2022/01/03 11:24:48;;;;;;;17.80;2.97;;;;;;;;;;5070120;28;20040;-78
2022/01/03 11:27:14;;;;;;;24.17;3.97;;;;;;;;;;5069860;28;20047;-78
2022/01/03 11:29:42;;;;;;;23.60;3.80;;;;;;;;;;5071020;28;20499;-77
2022/01/03 11:32:08;;;;;;;16.25;2.75;;;;;;;;;;5070224;28;20048;-78
2022/01/03 11:34:35;;;;;;;26.17;3.30;;;;;;;;;;5069910;28;20041;-78
2022/01/03 11:37:01;;;;;;;19.10;3.10;;;;;;;;;;5070008;28;20044;-78
2022/01/03 11:39:32;;;;;;;17.58;3.20;;;;;;;;;;5071508;28;20044;-78
2022/01/03 11:41:58;;;;;;;19.08;2.50;;;;;;;;;;5069729;28;20369;-78
2022/01/03 11:44:24;;;;;;;24.38;3.50;;;;;;;;;;5069740;28;20048;-78
2022/01/03 11:46:50;;;;;;;21.88;4.90;;;;;;;;;;5069619;28;20048;-76
2022/01/03 11:49:17;;;;;;;25.02;4.95;;;;;;;;;;5070815;28;20049;-78
2022/01/03 11:51:44;;;;;;;25.55;4.20;;;;;;;;;;5069466;28;20282;-77
2022/01/03 11:54:13;;;;;;;18.90;3.47;;;;;;;;;;5069630;28;20043;-78
2022/01/03 11:56:44;;;;;;;22.40;4.38;;;;;;;;;;5069583;28;20127;-78
2022/01/03 12:04:26;;;;;;;25.48;3.40;;;;;;;;;;5069515;28;20052;-77
2022/01/03 12:07:02;;;;;;;21.80;3.53;;;;;;;;;;5068111;28;20051;-77
2022/01/03 12:09:29;;;;;;;20.90;3.30;;;;;;;;;;5069786;28;20058;-78
2022/01/03 12:11:56;;;;;;;24.90;3.60;;;;;;;;;;5069092;28;20033;-77
2022/01/03 12:14:23;;;;;;;31.35;3.42;;;;;;;;;;5069264;28;20396;-78
2022/01/03 12:17:02;;;;;;;24.77;4.35;;;;;;;;;;5069047;28;20060;-78
2022/01/03 12:19:30;;;;;;;23.50;3.65;;;;;;;;;;5070205;28;20055;-79
2022/01/03 12:22:02;;;;;;;24.33;3.50;;;;;;;;;;5068819;28;20103;-78
2022/01/03 12:24:41;;;;;;;23.15;3.78;;;;;;;;;;5069418;28;20040;-78
2022/01/03 12:27:14;;;;;;;20.38;3.00;;;;;;;;;;5068533;28;20055;-78
2022/01/03 12:29:55;;;;;;;22.30;5.20;;;;;;;;;;5069316;28;20046;-78
2022/01/03 12:32:28;;;;;;;23.15;4.13;;;;;;;;;;5069105;28;20056;-78
2022/01/03 12:35:06;;;;;;;21.80;3.28;;;;;;;;;;5052091;28;20044;-79
2022/01/03 12:37:34;;;;;;;23.17;3.63;;;;;;;;;;5070167;28;20119;-78
2022/01/03 12:40:06;;;;;;;26.75;4.13;;;;;;;;;;5068646;28;20047;-79
2022/01/03 12:42:53;;;;;;;31.38;4.50;;;;;;;;;;5069044;28;20395;-78
2022/01/03 12:45:32;;;;;;;24.20;3.85;;;;;;;;;;5052515;28;20055;-79
2022/01/03 12:48:10;;;;;;;23.80;4.57;;;;;;;;;;5051561;28;20033;-79
2022/01/03 12:50:36;;;;;;;24.83;4.22;;;;;;;;;;5102957;28;20045;-78
2022/01/03 12:53:03;;;;;;;29.42;3.95;;;;;;;;;;5068276;28;20116;-80
2022/01/03 12:55:39;;;;;;;30.95;4.50;;;;;;;;;;5068627;28;20048;-79
2022/01/03 12:58:14;;;;;;;24.98;4.15;;;;;;;;;;5051951;28;20118;-79
2022/01/03 13:00:44;;;;;;;26.83;4.05;;;;;;;;;;5068570;28;20044;-78
2022/01/03 13:03:26;;;;;;;32.38;5.53;;;;;;;;;;5069562;28;20044;-79
2022/01/03 13:06:09;;;;;;;31.90;5.72;;;;;;;;;;5068327;28;20036;-78
2022/01/03 13:08:36;;;;;;;31.67;4.88;;;;;;;;;;5068666;28;20150;-79
2022/01/03 13:11:08;;;;;;;22.65;4.47;;;;;;;;;;5068217;28;20042;-78
2022/01/03 13:13:35;;;;;;;24.80;3.50;;;;;;;;;;5052085;28;20040;-78
2022/01/03 13:16:17;;;;;;;30.92;3.70;;;;;;;;;;5068357;28;20098;-78
2022/01/03 13:18:50;;;;;;;26.10;3.70;;;;;;;;;;5055887;28;20048;-78
2022/01/03 13:21:17;;;;;;;32.28;5.60;;;;;;;;;;5072064;28;20052;-79
2022/01/03 13:23:53;;;;;;;29.17;3.97;;;;;;;;;;5072636;28;20087;-79
2022/01/03 13:26:20;;;;;;;22.48;3.35;;;;;;;;;;5106359;28;20090;-79
2022/01/03 13:28:50;;;;;;;26.13;4.10;;;;;;;;;;5072459;28;20327;-79
2022/01/03 13:31:16;;;;;;;25.35;3.55;;;;;;;;;;5071815;28;20094;-78
2022/01/03 13:33:42;;;;;;;23.90;3.28;;;;;;;;;;5056013;28;20545;-79
2022/01/03 13:36:14;;;;;;;28.15;3.60;;;;;;;;;;5071885;28;20051;-79
2022/01/03 13:38:41;;;;;;;23.15;3.38;;;;;;;;;;5072189;28;20048;-78
2022/01/03 13:41:11;;;;;;;26.40;3.65;;;;;;;;;;5073092;28;20431;-79
2022/01/03 13:43:44;;;;;;;29.02;3.53;;;;;;;;;;5072485;28;20048;-78
2022/01/03 13:51:21;;;;;;;26.45;4.70;;;;;;;;;;5072291;28;20496;-78
2022/01/03 13:53:55;;;;;;;23.95;3.90;;;;;;;;;;5055700;28;20047;-78
2022/01/03 13:56:21;;;;;;;33.92;5.10;;;;;;;;;;5071457;28;20048;-77
2022/01/03 13:58:47;;;;;;;31.45;5.10;;;;;;;;;;5071678;28;20050;-78
2022/01/03 14:01:14;;;;;;;34.50;5.63;;;;;;;;;;5072334;28;20131;-76
2022/01/03 14:03:40;;;;;;;29.95;7.22;;;;;;;;;;5072766;28;20036;-76
2022/01/03 14:06:23;;;;;;;30.27;6.32;;;;;;;;;;5070850;28;20040;-77
2022/01/03 14:08:51;;;;;;;29.27;5.40;;;;;;;;;;5054176;28;20044;-80
2022/01/03 14:11:25;;;;;;;34.28;5.70;;;;;;;;;;5072231;28;20460;-75
2022/01/03 14:13:51;;;;;;;30.75;5.55;;;;;;;;;;5071902;28;20047;-78
2022/01/03 14:16:17;;;;;;;30.92;4.95;;;;;;;;;;5071533;28;20446;-79
2022/01/03 14:18:51;;;;;;;24.80;4.72;;;;;;;;;;5071965;28;20103;-78
2022/01/03 14:21:18;;;;;;;37.13;5.38;;;;;;;;;;5054709;28;20596;-77
2022/01/03 14:23:49;;;;;;;32.22;5.15;;;;;;;;;;5071827;28;20063;-79
2022/01/03 14:26:15;;;;;;;31.08;5.35;;;;;;;;;;5054506;28;20048;-80
2022/01/03 14:28:41;;;;;;;29.92;4.85;;;;;;;;;;5071379;28;20135;-79
2022/01/03 14:31:08;;;;;;;32.40;4.95;;;;;;;;;;5071421;28;20051;-79
2022/01/03 14:33:39;;;;;;;33.35;5.57;;;;;;;;;;5071781;28;20080;-79
2022/01/03 14:36:15;;;;;;;27.58;5.57;;;;;;;;;;5071423;28;20044;-78
2022/01/03 14:38:43;;;;;;;29.52;5.22;;;;;;;;;;5071548;28;20131;-80
2022/01/03 14:41:23;;;;;;;29.30;5.63;;;;;;;;;;5054905;28;20040;-78
2022/01/03 14:43:55;;;;;;;27.60;4.97;;;;;;;;;;5071469;28;20131;-78
2022/01/03 14:46:28;;;;;;;28.13;5.22;;;;;;;;;;5071034;28;20032;-79
2022/01/03 14:48:54;;;;;;;38.63;6.72;;;;;;;;;;5071085;28;20040;-79
2022/01/03 14:51:20;;;;;;;29.73;6.43;;;;;;;;;;5071347;28;20443;-78
2022/01/03 14:53:47;;;;;;;30.30;7.05;;;;;;;;;;5071136;28;20036;-78
2022/01/03 14:56:28;;;;;;;30.15;7.35;;;;;;;;;;5054255;28;20499;-75
2022/01/03 14:59:13;;;;;;;27.27;5.50;;;;;;;;;;5054206;28;20128;-76
2022/01/03 15:01:40;;;;;;;25.95;6.70;;;;;;;;;;5070442;28;20051;-78
2022/01/03 15:04:06;;;;;;;28.55;5.65;;;;;;;;;;5070583;28;20127;-76
2022/01/03 15:06:32;;;;;;;26.83;6.07;;;;;;;;;;5070580;28;20056;-77